METAR Data
IDs: Format: Raw Decoded Include TAF

Data at: 1139 UTC 15 Jul 2020

KBBP 151135Z AUTO 06003KT 10SM SCT085 25/25 A3007 RMK AO2
KBBP 151115Z AUTO 00000KT 5SM BR OVC085 25/24 A3007 RMK AO2
KBBP 151055Z AUTO 04005KT 7SM BKN085 BKN100 24/24 A3007 RMK AO2
KBBP 151035Z AUTO 02003KT 7SM SCT100 24/24 A3007 RMK AO2
KBBP 151015Z AUTO 02003KT 7SM CLR 24/24 A3006 RMK AO2
KBBP 150955Z AUTO 00000KT 10SM SCT100 25/25 A3005 RMK AO2
KBBP 150935Z AUTO 00000KT 10SM OVC100 25/25 A3004 RMK AO2
KBBP 150915Z AUTO 00000KT 10SM OVC090 25/25 A3004 RMK AO2
KBBP 150855Z AUTO 00000KT 10SM OVC090 25/25 A3003 RMK AO2
KBBP 150835Z AUTO 00000KT 10SM OVC090 25/25 A3003 RMK AO2
KBBP 150815Z AUTO 00000KT 10SM BKN090 OVC110 26/25 A3003 RMK AO2
KBBP 150755Z AUTO 00000KT 10SM BKN090 OVC110 26/25 A3002 RMK AO2
KBBP 150735Z AUTO 00000KT 10SM OVC090 26/25 A3002 RMK AO2
KBBP 150715Z AUTO 06003KT 10SM OVC090 26/25 A3002 RMK AO2
KBBP 150655Z AUTO 00000KT 10SM OVC090 26/25 A3002 RMK AO2
KBBP 150635Z AUTO 10003KT 10SM OVC090 26/24 A3002 RMK AO2
KBBP 150615Z AUTO 00000KT 10SM OVC090 26/24 A3003 RMK AO2
KBBP 150555Z AUTO 00000KT 10SM OVC090 26/24 A3003 RMK AO2
KBBP 150535Z AUTO 00000KT 10SM OVC090 26/25 A3004 RMK AO2
KBBP 150515Z AUTO 00000KT 10SM OVC090 27/24 A3004 RMK AO2
KBBP 150455Z AUTO 00000KT 10SM OVC090 26/23 A3004 RMK AO2
KBBP 150435Z AUTO 00000KT 10SM BKN100 27/23 A3005 RMK AO2
KBBP 150415Z AUTO 08003KT 10SM OVC100 26/23 A3004 RMK AO2
KBBP 150355Z AUTO 14003KT 10SM OVC090 26/23 A3004 RMK AO2
KBBP 150335Z AUTO 00000KT 7SM OVC090 27/23 A3004 RMK AO2
KBBP 150315Z AUTO 12003KT 10SM OVC090 27/23 A3004 RMK AO2
KBBP 150255Z AUTO 07003KT 10SM BKN090 OVC110 27/22 A3003 RMK AO2
KBBP 150235Z AUTO 00000KT 10SM SCT075 BKN090 OVC110 26/22 A3003 RMK AO2
KBBP 150215Z AUTO 02008KT 10SM BKN075 OVC110 26/23 A3003 RMK AO2
KBBP 150155Z AUTO 04005KT 10SM SCT075 OVC100 27/23 A3003 RMK AO2
KBBP 150135Z AUTO 02005KT 10SM OVC110 27/23 A3002 RMK AO2
KBBP 150115Z AUTO 35007KT 10SM OVC095 27/23 A3001 RMK AO2
KBBP 150055Z AUTO 01007KT 10SM BKN095 OVC120 28/24 A3001 RMK AO2
KBBP 150035Z AUTO 00000KT 10SM SCT095 SCT120 30/25 A3000 RMK AO2 LTG DSNT NW
KBBP 150015Z AUTO 00000KT 10SM CLR 31/24 A2999 RMK AO2
KBBP 142355Z AUTO 00000KT 10SM CLR 31/24 A2999 RMK AO2 LTG DSNT N AND NW
KBBP 142335Z AUTO 19004KT 10SM CLR 32/24 A2998 RMK AO2
KBBP 142315Z AUTO 20004KT 10SM CLR 32/23 A2998 RMK AO2
KBBP 142255Z AUTO 21004KT 10SM CLR 33/23 A2998 RMK AO2
KBBP 142235Z AUTO 17004KT 10SM CLR 33/22 A2997 RMK AO2
KBBP 142215Z AUTO 18003KT 10SM CLR 33/22 A2997 RMK AO2
KBBP 142155Z AUTO 15005KT 10SM CLR 33/21 A2996 RMK AO2
KBBP 142135Z AUTO 15004KT 10SM CLR 33/21 A2996 RMK AO2
KBBP 142115Z AUTO 12004KT 10SM CLR 34/22 A2996 RMK AO2
KBBP 142055Z AUTO 09005KT 10SM SCT050 34/22 A2997 RMK AO2
KBBP 142035Z AUTO 19004KT 10SM SCT060 34/22 A2997 RMK AO2
KBBP 142015Z AUTO 22003KT 10SM CLR 34/20 A2997 RMK AO2
KBBP 141955Z AUTO 13006KT 10SM CLR 34/21 A2996 RMK AO2
KBBP 141935Z AUTO 10005KT 10SM CLR 34/22 A2996 RMK AO2
KBBP 141915Z AUTO 00000KT 10SM CLR 33/21 A2997 RMK AO2
KBBP 141855Z AUTO 15004KT 10SM SCT048 33/22 A2997 RMK AO2
KBBP 141835Z AUTO 06004KT 10SM CLR 33/22 A2998 RMK AO2
KBBP 141815Z AUTO 00000KT 10SM CLR 33/22 A2998 RMK AO2
KBBP 141755Z AUTO 00000KT 10SM CLR 32/22 A2999 RMK AO2
KBBP 141735Z AUTO 00000KT 10SM CLR 32/22 A2999 RMK AO2
KBBP 141715Z AUTO 35003KT 10SM CLR 32/22 A2999 RMK AO2
KBBP 141655Z AUTO 00000KT 10SM 32/23 A2999 RMK AO2
KBBP 141635Z AUTO 13003KT 10SM CLR 31/23 A2999 RMK AO2 P0005
KBBP 141555Z AUTO 10004KT A3001 RMK AO2 PWINO
KBBP 141535Z AUTO 09004KT 10SM SCT100 30/23 A3001 RMK AO2
KBBP 141515Z AUTO 00000KT 10SM CLR 30/23 A3001 RMK AO2
KBBP 141455Z AUTO 00000KT 10SM CLR 30/23 A3000 RMK AO2
KBBP 141435Z AUTO 09003KT 10SM CLR 29/24 A3000 RMK AO2
KBBP 141415Z AUTO 00000KT 10SM CLR 28/24 A3000 RMK AO2
KBBP 141355Z AUTO 00000KT 10SM CLR 27/23 A2999 RMK AO2
KBBP 141335Z AUTO 05003KT 10SM CLR 27/23 A2999 RMK AO2
KBBP 141315Z AUTO 00000KT 10SM CLR 26/23 A2998 RMK AO2
KBBP 141255Z AUTO 00000KT 10SM CLR 26/23 A2998 RMK AO2
KBBP 141235Z AUTO 04003KT 10SM CLR 25/23 A2998 RMK AO2
KBBP 141215Z AUTO 00000KT 10SM CLR 24/23 A2997 RMK AO2
KBBP 141155Z AUTO 00000KT 10SM CLR 23/22 A2996 RMK AO2 LTG DSNT E
KBBP 141135Z AUTO 00000KT 7SM CLR 22/22 A2996 RMK AO2
KBBP 141115Z AUTO 00000KT 5SM BR CLR 21/21 A2995 RMK AO2
KBBP 141055Z AUTO 00000KT 5SM BR CLR 21/21 A2995 RMK AO2
KBBP 141035Z AUTO 00000KT 5SM BR CLR 21/21 A2995 RMK AO2
KBBP 140955Z AUTO 00000KT 5SM BR CLR 21/21 A2994 RMK AO2
KBBP 140935Z AUTO 00000KT 7SM CLR 21/21 A2994 RMK AO2
KBBP 140915Z AUTO 30003KT 7SM CLR 21/21 A2993 RMK AO2
KBBP 140855Z AUTO 00000KT 7SM CLR 21/21 A2992 RMK AO2
KBBP 140835Z AUTO 00000KT 7SM CLR 21/21 A2992 RMK AO2
KBBP 140815Z AUTO 00000KT 10SM CLR 21/21 A2992 RMK AO2
KBBP 140715Z AUTO 00000KT 10SM CLR 22/21 A2991 RMK AO2
KBBP 140655Z AUTO 00000KT 10SM CLR 21/21 A2991 RMK AO2
KBBP 140635Z AUTO 00000KT 10SM CLR 22/22 A2992 RMK AO2
KBBP 140615Z AUTO 00000KT 10SM CLR 22/22 A2991 RMK AO2
KBBP 140555Z AUTO 00000KT 10SM CLR 22/22 A2992 RMK AO2
KBBP 140535Z AUTO 00000KT 10SM CLR 22/22 A2992 RMK AO2
KBBP 140515Z AUTO 00000KT 10SM CLR 22/22 A2992 RMK AO2
KBBP 140455Z AUTO 00000KT 10SM CLR 22/22 A2991 RMK AO2
KBBP 140435Z AUTO 00000KT 10SM CLR 22/22 A2991 RMK AO2
KBBP 140415Z AUTO 04007KT 10SM CLR 22/22 A2992 RMK AO2
KBBP 140355Z AUTO 36003KT 10SM CLR 22/22 A2991 RMK AO2
KBBP 140335Z AUTO 00000KT 10SM CLR 23/22 A2991 RMK AO2
KBBP 140315Z AUTO 00000KT 10SM CLR 23/22 A2991 RMK AO2
KBBP 140255Z AUTO 21005KT 10SM CLR 23/22 A2990 RMK AO2
KBBP 140235Z AUTO 19004KT 10SM CLR 23/22 A2990 RMK AO2
KBBP 140215Z AUTO 21005KT 10SM CLR 24/23 A2990 RMK AO2
KBBP 140155Z AUTO 16004KT 10SM CLR 25/23 A2990 RMK AO2
KBBP 140135Z AUTO 00000KT 10SM CLR 24/23 A2990 RMK AO2
KBBP 140115Z AUTO 00000KT 10SM CLR 25/24 A2989 RMK AO2
KBBP 140055Z AUTO 00000KT 7SM CLR 25/23 A2988 RMK AO2
KBBP 140035Z AUTO 00000KT 10SM CLR 26/23 A2987 RMK AO2 LTG DSNT S
KBBP 140015Z AUTO 00000KT 10SM SCT100 27/23 A2987 RMK AO2
KBBP 132355Z AUTO 00000KT 10SM SCT100 27/22 A2987 RMK AO2 LTG DSNT NE